Flight Track Log - Related Links

Times and Time Zones

All times are in EDT time to prevent confusion due to time zone crossing. See the DAL1509 flight status page for this flight to view local times or setup timezone preferences in your user account.

Time Position Orientation Groundspeed Altitude Reporting Facility
EDT Latitude Longitude Course Direction KTS MPH feet Rate Location/Type
Thu 12:52:10 PM 29.6308 -95.2633 86° East 155 178 700  Level Houston Center
Thu 12:52:47 PM 29.6064 -95.2469 150° Southeast 197 227 1,400 2,204 Climbing Houston Center
Thu 12:53:48 PM 29.5533 -95.1981 141° Southeast 255 293 4,300 2,634 Climbing Houston Center
Thu 12:54:09 PM 29.5519 -95.1794 95° East 246 283 5,000 3,214 Climbing Houston Center
Thu 12:54:44 PM 29.5508 -95.1239 91° East 256 295 7,300 2,903 Climbing Houston Center
Thu 12:55:00 PM 29.8045 -94.9043 82° East  Level Estimated
Thu 12:55:11 PM 29.5561 -95.1014 75° East 255 293 8,000  Level Houston Center
Thu 12:55:51 PM 29.5717 -95.0325 75° East 289 333 9,000 1,048 Climbing Houston Center
Thu 12:56:00 PM 29.8573 -94.7792 79° East  Level Estimated
Thu 12:56:14 PM 29.5789 -94.9981 76° East 286 329 9,100  Level Houston Center
Thu 12:56:46 PM 29.5908 -94.9483 75° East 294 338 10,300 1,645 Climbing Houston Center
Thu 12:57:00 PM 29.9100 -94.6540 86° East  Level Estimated
Thu 12:57:16 PM 29.6006 -94.9064 75° East 296 341 10,800  Level Houston Center
Thu 12:58:18 PM 29.6222 -94.7972 77° East 349 402 12,800 2,081 Climbing Houston Center
Thu 12:59:20 PM 29.6478 -94.6811 76° East 373 429 15,100 2,129 Climbing Houston Center
Thu 01:00:22 PM 29.7175 -94.5894 49° Northeast 382 440 17,200 1,984 Climbing Houston Center
Thu 01:01:24 PM 29.8222 -94.4944 38° Northeast 397 457 19,200 1,728 Climbing Houston Center
Thu 01:02:27 PM 29.9142 -94.4208 35° Northeast 409 471 20,800 1,536 Climbing Houston Center
Thu 01:03:29 PM 30.0122 -94.3442 34° Northeast 420 483 22,400 1,548 Climbing Houston Center
Thu 01:04:31 PM 30.1047 -94.2558 40° Northeast 431 496 24,000 1,403 Climbing Houston Center
Thu 01:05:33 PM 30.1767 -94.1442 53° Northeast 435 501 25,300 1,258 Climbing Houston Center
Thu 01:06:35 PM 30.2119 -93.9789 76° East 440 506 26,600 1,008 Climbing Houston Center
Thu 01:07:38 PM 30.2383 -93.8378 78° East 448 516 27,400 816 Climbing Houston Center
Thu 01:08:40 PM 30.2633 -93.6936 79° East 454 522 28,300 1,016 Climbing Houston Center
Thu 01:09:42 PM 30.2928 -93.5300 78° East 464 534 29,500 823 Climbing Houston Center
Thu 01:10:44 PM 30.3203 -93.3778 78° East 476 548 30,000 581 Climbing Houston Center
Thu 01:11:46 PM 30.3475 -93.2275 78° East 481 554 30,700 677 Climbing Houston Center
Thu 01:12:48 PM 30.3739 -93.0733 79° East 487 560 31,400 720 Climbing Houston Center
Thu 01:13:51 PM 30.3933 -92.9194 82° East 487 560 32,200 672 Climbing Houston Center
Thu 01:14:53 PM 30.4208 -92.7344 80° East 487 560 32,800 339 Climbing Houston Center
Thu 01:15:55 PM 30.4489 -92.5794 78° East 492 566 32,900 97 Climbing Houston Center
Thu 01:16:57 PM 30.4750 -92.4278 79° East 492 566 33,000 48 Climbing Houston Center
Thu 01:17:59 PM 30.5019 -92.2686 79° East 502 578 33,000  Level Houston Center
Thu 01:19:01 PM 30.5358 -92.0742 79° East 514 592 33,000  Level Houston Center
Thu 01:20:04 PM 30.5631 -91.9136 79° East 514 592 33,000  Level Houston Center
Thu 01:21:06 PM 30.5908 -91.7533 79° East 513 590 33,000  Level Houston Center
Thu 01:22:08 PM 30.6164 -91.5928 79° East 510 587 33,000  Level Houston Center
Thu 01:23:10 PM 30.6475 -91.4103 79° East 510 587 33,000  Level Houston Center
Thu 01:24:12 PM 30.6736 -91.2478 79° East 511 588 33,000  Level Houston Center
Thu 01:25:15 PM 30.6997 -91.0847 79° East 513 590 33,000  Level Houston Center
Thu 01:26:17 PM 30.7286 -90.9222 78° East 513 590 33,000  Level Houston Center
Thu 01:27:19 PM 30.7533 -90.7600 80° East 513 590 33,000  Level Houston Center
Thu 01:28:21 PM 30.7797 -90.5967 79° East 513 590 33,000  Level Houston Center
Thu 01:29:23 PM 30.8125 -90.3994 79° East 514 592 33,000  Level Houston Center
Thu 01:30:26 PM 30.8381 -90.2339 80° East 515 593 33,000  Level Houston Center
Thu 01:31:28 PM 30.8639 -90.0681 80° East 516 594 33,000  Level Houston Center
Thu 01:32:30 PM 30.8889 -89.9036 80° East 516 594 33,000  Level Houston Center
Thu 01:33:32 PM 30.9136 -89.7392 80° East 516 594 33,000  Level Houston Center
Thu 01:34:34 PM 30.9394 -89.5739 80° East 515 593 33,000  Level Houston Center
Thu 01:35:36 PM 30.9700 -89.3733 80° East 517 595 33,000 -48 Level Houston Center
Thu 01:36:39 PM 30.9939 -89.2039 81° East 525 604 32,900  Descending Houston Center
Thu 01:37:41 PM 31.0186 -89.0358 80° East 525 604 33,000 48 Climbing Houston Center
Thu 01:38:43 PM 31.0442 -88.8572 80° East 522 601 33,000  Level Houston Center
Thu 01:39:45 PM 31.0678 -88.6950 80° East 511 588 33,000  Level Houston Center
Thu 01:40:47 PM 31.0906 -88.5447 80° East 509 586 33,000  Level Houston Center
Thu 01:41:50 PM 31.1672 -88.3700 63° Northeast 511 588 33,000  Level Houston Center
Thu 01:42:52 PM 31.2450 -88.2475 53° Northeast 510 587 33,000  Level Houston Center
Thu 01:43:54 PM 31.3292 -88.1108 54° Northeast 510 587 33,000  Level Houston Center
Thu 01:44:56 PM 31.4106 -87.9744 55° Northeast 510 587 33,000 -242 Level Houston Center
Thu 01:45:58 PM 31.5075 -87.8133 55° Northeast 506 582 32,500 -1,056 Descending Houston Center
Thu 01:47:01 PM 31.5875 -87.6825 54° Northeast 498 573 30,800 -1,500 Descending Houston Center
Thu 01:47:46 PM 31.6542 -87.5811 52° Northeast 497 572 29,800 -1,029 Descending Atlanta Center
Thu 01:48:46 PM 31.7328 -87.4547 54° Northeast 492 566 29,000 -400 Descending Atlanta Center
Thu 01:49:46 PM 31.7942 -87.3519 55° Northeast 486 559 29,000  Level Atlanta Center
Thu 01:50:46 PM 31.8792 -87.2061 56° Northeast 486 559 29,000  Level Atlanta Center
Thu 01:51:46 PM 31.9578 -87.0742 55° Northeast 486 559 29,000  Level Atlanta Center
Thu 01:52:46 PM 32.0425 -86.9325 55° Northeast 486 559 29,000  Level Atlanta Center
Thu 01:53:46 PM 32.1228 -86.7978 55° Northeast 486 559 29,000  Level Atlanta Center
Thu 01:54:46 PM 32.2050 -86.6703 53° Northeast 486 559 29,000  Level Atlanta Center
Thu 01:55:46 PM 32.2850 -86.5375 54° Northeast 486 559 29,000 -250 Level Atlanta Center
Thu 01:56:46 PM 32.3475 -86.4311 55° Northeast 491 565 28,500 -500 Descending Atlanta Center
Thu 01:57:46 PM 32.4275 -86.2781 58° Northeast 491 565 28,000 -250 Descending Atlanta Center
Thu 01:58:46 PM 32.5178 -86.1303 54° Northeast 495 570 28,000  Level Atlanta Center
Thu 01:59:46 PM 32.5953 -85.9964 55° Northeast 500 575 28,000 -500 Level Atlanta Center
Thu 02:00:46 PM 32.6725 -85.8625 56° Northeast 500 575 27,000 -1,750 Descending Atlanta Center
Thu 02:01:46 PM 32.7494 -85.7281 56° Northeast 490 564 24,500 -2,550 Descending Atlanta Center
Thu 02:02:46 PM 32.8242 -85.6011 55° Northeast 483 556 21,900 -2,550 Descending Atlanta Center
Thu 02:03:46 PM 32.8944 -85.4786 56° Northeast 469 540 19,400 -2,200 Descending Atlanta Center
Thu 02:04:46 PM 32.9606 -85.3608 56° Northeast 445 512 17,500 -2,300 Descending Atlanta Center
Thu 02:05:46 PM 33.0264 -85.2453 56° Northeast 430 495 14,800 -2,500 Descending Atlanta Center
Thu 02:06:46 PM 33.0900 -85.1544 50° Northeast 408 470 12,500 -1,450 Descending Atlanta Center
Thu 02:07:46 PM 33.1597 -85.0611 48° Northeast 386 444 11,900 -650 Descending Atlanta Center
Thu 02:08:46 PM 33.2167 -84.9872 47° Northeast 324 373 11,200 -1,150 Descending Atlanta Center
Thu 02:09:46 PM 33.2797 -84.9086 46° Northeast 297 342 9,600 -1,450 Descending Atlanta Center
Thu 02:10:46 PM 33.3325 -84.8344 50° Northeast 291 335 8,300 -1,366 Descending Atlanta Center
Thu 02:11:27 PM 33.3833 -84.8000 29° Northeast 284 327 7,300 -1,485 Descending Atlanta TRACON
Thu 02:12:27 PM 33.4500 -84.8000 360° North 276 318 5,800 -1,513 Descending Atlanta TRACON
Thu 02:13:22 PM 33.5167 -84.8167 348° North 277 319 4,400 -1,100 Descending Atlanta TRACON
Thu 02:14:27 PM 33.6000 -84.8167 360° North 228 262 3,600 -706 Descending Atlanta TRACON
Thu 02:15:21 PM 33.6333 -84.7833 40° Northeast 220 253 3,000 -316 Descending Atlanta TRACON
Thu 02:16:21 PM 33.6333 -84.7167 90° East 205 236 3,000  Level Atlanta TRACON
Thu 02:17:15 PM 33.6333 -84.6500 90° East 201 231 3,000  Level Atlanta TRACON
Thu 02:18:21 PM 33.6333 -84.5833 90° East 177 204 3,000 -286 Level Atlanta TRACON
Thu 02:19:21 PM 33.6333 -84.5333 90° East 166 191 2,400 -700 Descending Atlanta TRACON
Thu 02:20:21 PM 33.6333 -84.4833 90° East 132 152 1,600 -800 Descending Atlanta TRACON

Login

Don't have an account? Register now (free) for customized features, flight alerts, and more!